Relevés horaires Schaffen (Belgique)


Relevés horaires à Schaffen - Dimanche 30 Août 2026
Heure UTC1 Température [°C] Vent [km/h] Hum. [%] Pres.4 [hPa] Visi. [Km] Nébu. [octa] Préc.5 [mm] Cond.
2m. Res. Ros. Dir.2 Vit. Moy. Raf.3
23:00 16.8 16.8 15.0 NNO 3.7 -- 3.7 89 1010.2(-0.7/3h) >70 -- -- --
22:00 17.4 17.4 14.9 S 3.7 -- 5.6 85 1010.5(-0.9/3h) >70 -- -- --
21:00 17.7 17.7 14.9 NNO 3.7 -- 11.1 84 1010.6(-0.8/3h) >70 -- -- NA
20:00 18.2 18.2 14.9 S 3.7 -- 5.6 81 1010.8(-0.7/3h) >70 -- -- --
19:00 19.8 19.8 14.3 SO 3.7 -- 11.1 71 1011.3(-0.5/3h) 70 -- -- Ciel clair
18:00 20.8 20.8 14.1 NNO 3.7 -- 16.7 65 1011.3(-0.8/3h) >70 -- -- --
17:00 21.7 21.7 13.6 SSO 3.7 -- 13.0 60 1011.7(-0.6/3h) 70 -- -- --
16:00 22.5 22.5 12.8 SO 5.6 -- 13.0 54 1011.8(-0.6/3h) >70 -- -- --
15:00 22.7 22.7 13.1 SSO 5.6 -- 16.7 55 1012.2(-0.2/3h) 70 -- -- --
14:00 22.6 22.6 12.7 SO 7.4 -- 14.8 54 1012.3(0.0/3h) >70 -- -- --
13:00 22.3 22.3 13.1 SO 7.4 -- 16.7 56 1012.6(0.3/3h) >70 -- -- --
12:00 22.1 22.1 13.7 SO 5.6 -- 20.4 59 1012.3(0.4/3h) >70 -- -- NA
11:00 20.8 20.8 13.6 OSO 9.3 -- 18.5 63 1012.2(0.8/3h) >70 -- -- --
10:00 20.4 20.4 13.9 OSO 11.1 -- 20.4 66 1012.2(1.4/3h) >70 -- -- --
09:00 19.4 19.4 14.3 OSO 9.3 -- 20.4 72 1012(1.7/3h) 70 -- -- Ciel clair
08:00 18.2 18.2 14.5 SO 11.1 -- 18.5 79 1011.5(1.8/3h) >70 -- -- NA
07:00 17.7 17.7 14.0 SO 7.4 -- 16.7 79 1010.8(1.4/3h) >70 -- -- --
06:00 17.3 17.3 13.7 SSO 7.4 -- 20.4 79 1010.2(0.8/3h) >70 -- 0.8/12h
--
05:00 17.5 17.5 13.5 SO 7.4 -- 16.7 77 1009.7(0.6/3h) >70 -- -- --
04:00 17.5 17.5 13.6 SO 7.4 -- 20.4 78 1009.3(0.7/3h) >70 -- -- --
03:00 17.2 17.2 13.8 SO 5.6 -- 18.5 80 1009.2(0.7/3h) >70 -- -- --
02:00 17.3 17.3 13.7 SO 7.4 -- 16.7 79 1009(0.8/3h) >70 -- -- --
01:00 17.3 17.3 14.3 SO 7.4 -- 16.7 83 1008.7(0.7/3h) >70 -- -- --
00:00 18.1 18.1 15.3 SO 7.4 -- 20.4 84 1008.6(0.9/3h) >70 -- 0.8/6h
NA

1 Coordinated Universal Time. Actuellement il est 04:00 locale et 02:00 UTC.

2 Le vent souffle depuis la direction indiquée vers la direction oposée.

3 Les rafales max. sont disponible 40 min après l'heure du relevé.

4 Pour les stations d'altitude (plus de 600m) le géopotentiel du niveau le plus proche de la pression obligatoire est indiqué.

5 Les stations disposant d'un diffuseur peuvent indiquer "trace". Cela signifie que des précipitations ont touchés le sol mais que la quantité est inférieure à 0.1 mm.

Récapitulatif de la journée
Température [°C] Vent [km/h] Ensoleillement4 [h] Precipitations totale5 [mm] Pression [Hpa]
Min1 Max.2 Moy.3 Max. Min Max.
17.1 22.9 0 20.4 0 h 0 min 0 1008.6 1012.6

1 Température minimale relevée entre 18:00 UTC la veille et 18:00 UTC le jour donné.

2 Température maximale relevée entre 06:00 UTC le jour donné et 06:00 UTC le lendemain.

3 Vent moyen de la journée basé sur les relevés horaires.

4 Ensoleillement en heures relevé entre 06:00 UTC la veille et 06:00 UTC le jour donné.

5 Précipitations totales tombées entre 06:00 UTC la jour donné et 06:00 UTC le lendemain.

Graphiques horaires